Time;durP1;ratioP1;P1;durP2;ratioP2;P2;SDS_P1;SDS_P2;PMS_P1;PMS_P2;Temp;Humidity;BMP_temperature;BMP_pressure;BME280_temperature;BME280_humidity;BME280_pressure;Samples;Min_cycle;Max_cycle;Signal;HPM_P1;HPM_P2
2022/03/06 00:00:42;;;;;;;26.20;14.33;;;;;;;-2.89;74.19;95840.57;1758699;81;21053;-66
2022/03/06 00:03:10;;;;;;;22.17;13.30;;;;;;;-2.93;74.43;95841.27;1742287;82;20995;-66
2022/03/06 00:05:37;;;;;;;25.70;14.70;;;;;;;-2.97;74.63;95842.38;1758969;81;21009;-66
2022/03/06 00:08:05;;;;;;;32.27;16.40;;;;;;;-3.09;74.77;95853.16;1742183;82;21047;-66
2022/03/06 00:10:33;;;;;;;35.77;18.27;;;;;;;-3.10;75.62;95857.83;1758925;81;20973;-66
2022/03/06 00:13:00;;;;;;;31.47;16.93;;;;;;;-3.08;75.30;95851.03;1742333;82;20971;-66
2022/03/06 00:15:27;;;;;;;33.57;16.50;;;;;;;-3.06;75.28;95846.80;1758729;82;21069;-66
2022/03/06 00:17:54;;;;;;;28.17;14.07;;;;;;;-3.02;75.04;95844.82;1742253;82;21035;-66
2022/03/06 00:20:21;;;;;;;31.87;17.80;;;;;;;-3.02;74.78;95849.08;1759042;81;21456;-66
2022/03/06 00:22:48;;;;;;;35.30;17.27;;;;;;;-3.01;74.79;95845.70;1742444;82;21018;-66
2022/03/06 00:25:15;;;;;;;27.30;15.20;;;;;;;-3.06;74.54;95840.36;1759135;81;21467;-66
2022/03/06 00:27:41;;;;;;;28.17;14.70;;;;;;;-3.11;74.38;95845.76;1742494;82;21027;-66
2022/03/06 00:30:09;;;;;;;25.67;14.17;;;;;;;-3.31;74.56;95852.32;1759184;81;20985;-66
2022/03/06 00:32:35;;;;;;;27.43;14.70;;;;;;;-3.32;74.98;95854.45;1742497;82;21034;-66
2022/03/06 00:35:03;;;;;;;24.93;12.97;;;;;;;-3.31;74.87;95854.03;1759128;81;21060;-66
2022/03/06 00:37:29;;;;;;;27.50;15.10;;;;;;;-3.28;74.84;95848.98;1742168;82;21047;-66
2022/03/06 00:39:56;;;;;;;23.53;12.13;;;;;;;-3.21;75.13;95845.81;1759191;81;20954;-66
2022/03/06 00:42:23;;;;;;;28.50;14.73;;;;;;;-3.18;74.46;95844.63;1742684;82;20984;-66
2022/03/06 00:44:50;;;;;;;26.07;14.70;;;;;;;-3.33;74.03;95847.92;1789558;80;20978;-66
2022/03/06 00:47:17;;;;;;;27.53;14.23;;;;;;;-3.41;74.48;95842.89;1790602;80;21081;-66
2022/03/06 00:49:44;;;;;;;27.43;13.97;;;;;;;-3.37;74.50;95844.36;1766103;81;21133;-66
2022/03/06 00:52:11;;;;;;;25.00;13.50;;;;;;;-3.30;74.92;95846.74;1766321;81;21046;-66
2022/03/06 00:54:39;;;;;;;23.97;13.73;;;;;;;-3.25;74.94;95843.96;1766317;81;20987;-65
2022/03/06 00:57:06;;;;;;;27.67;13.57;;;;;;;-3.28;74.08;95845.11;1765958;81;20995;-66
2022/03/06 00:59:35;;;;;;;23.00;12.40;;;;;;;-3.32;74.25;95839.37;1766447;81;20982;-66
2022/03/06 01:02:05;;;;;;;24.60;13.33;;;;;;;-3.38;74.02;95841.29;1765999;81;21547;-65
2022/03/06 01:04:34;;;;;;;25.20;13.30;;;;;;;-3.39;74.25;95843.41;1766151;81;20997;-66
2022/03/06 01:07:01;;;;;;;23.30;12.97;;;;;;;-3.43;74.10;95839.36;1766216;81;21512;-66
2022/03/06 01:09:29;;;;;;;23.33;12.90;;;;;;;-3.42;74.30;95838.56;1766275;81;20982;-66
2022/03/06 01:11:56;;;;;;;21.87;12.33;;;;;;;-3.65;74.87;95841.13;1766115;81;21086;-66
2022/03/06 01:14:23;;;;;;;28.27;14.13;;;;;;;-3.62;75.18;95836.49;1766242;81;21101;-66
2022/03/06 01:16:50;;;;;;;28.13;13.30;;;;;;;-3.62;74.53;95837.78;1766002;81;21034;-66
2022/03/06 01:19:17;;;;;;;27.70;13.40;;;;;;;-3.54;74.93;95833.38;1766052;81;21073;-66
2022/03/06 01:21:44;;;;;;;28.83;16.07;;;;;;;-3.39;75.22;95836.97;1766195;81;21010;-66
2022/03/06 01:24:11;;;;;;;23.97;13.60;;;;;;;-3.36;75.87;95829.75;1766310;81;21029;-66
2022/03/06 01:26:37;;;;;;;25.47;13.37;;;;;;;-3.34;75.17;95826.83;1765987;81;21137;-66
2022/03/06 01:29:05;;;;;;;25.87;14.13;;;;;;;-3.29;74.82;95821.43;1766210;81;21033;-66
2022/03/06 01:31:31;;;;;;;31.17;16.00;;;;;;;-3.34;74.95;95812.64;1790610;80;21552;-66
2022/03/06 01:33:58;;;;;;;31.33;14.93;;;;;;;-3.34;74.93;95808.34;1790492;80;21018;-66
2022/03/06 01:36:25;;;;;;;23.40;13.60;;;;;;;-3.27;75.08;95799.16;1790668;80;21473;-66
2022/03/06 01:38:52;;;;;;;29.97;14.40;;;;;;;-3.26;74.69;95804.77;1765858;81;20998;-66
2022/03/06 01:41:18;;;;;;;23.13;13.23;;;;;;;-3.29;74.19;95799.50;1766397;81;20990;-66
2022/03/06 01:43:45;;;;;;;25.17;13.27;;;;;;;-3.23;74.62;95807.88;1758020;81;21604;-65
2022/03/06 01:46:14;;;;;;;26.70;13.67;;;;;;;-3.23;74.32;95811.33;1745811;82;21007;-66
2022/03/06 01:48:41;;;;;;;28.33;13.87;;;;;;;-3.28;73.94;95806.41;1745777;82;21031;-66
2022/03/06 01:51:08;;;;;;;29.13;13.27;;;;;;;-3.53;74.18;95814.52;1745654;82;21087;-66
2022/03/06 01:53:34;;;;;;;23.97;13.10;;;;;;;-3.66;74.04;95815.26;1759182;81;21492;-66
2022/03/06 01:56:01;;;;;;;23.87;13.00;;;;;;;-3.62;74.58;95814.58;1742541;82;21016;-66
2022/03/06 01:58:28;;;;;;;23.17;13.07;;;;;;;-3.55;74.68;95811.00;1758819;81;21113;-66
2022/03/06 02:00:55;;;;;;;25.23;12.40;;;;;;;-3.54;74.05;95814.45;1715645;82;21553;-66
2022/03/06 02:03:21;;;;;;;25.83;13.43;;;;;;;-3.63;74.26;95814.08;1759287;81;21116;-66
2022/03/06 02:05:48;;;;;;;22.50;12.43;;;;;;;-3.62;74.38;95815.45;1742844;82;20999;-66
2022/03/06 02:08:15;;;;;;;29.67;14.03;;;;;;;-3.75;73.76;95811.92;1758728;81;21017;-66
2022/03/06 02:10:42;;;;;;;30.30;14.87;;;;;;;-3.78;74.03;95805.33;1742594;82;21027;-66
2022/03/06 02:13:09;;;;;;;30.77;14.63;;;;;;;-4.00;74.41;95814.80;1759079;81;21058;-66
2022/03/06 02:15:36;;;;;;;29.73;15.37;;;;;;;-4.03;74.80;95812.11;1742572;82;21487;-66
2022/03/06 02:18:03;;;;;;;23.73;13.07;;;;;;;-4.05;74.95;95812.87;1758852;82;20975;-66
2022/03/06 02:20:30;;;;;;;24.83;13.17;;;;;;;-4.08;74.86;95814.91;1742758;82;21505;-66
2022/03/06 02:22:58;;;;;;;28.27;13.67;;;;;;;-4.08;75.07;95812.72;1759123;81;20989;-66
2022/03/06 02:25:30;;;;;;;25.03;12.97;;;;;;;-4.02;75.00;95811.28;1743130;82;20968;-66
2022/03/06 02:28:00;;;;;;;26.53;14.37;;;;;;;-4.06;74.69;95808.51;1758986;81;21026;-66
2022/03/06 02:30:30;;;;;;;25.57;12.67;;;;;;;-4.13;75.31;95812.56;1742639;82;21528;-68
2022/03/06 02:32:59;;;;;;;25.00;12.70;;;;;;;-4.19;75.12;95812.28;1759113;81;21121;-68
2022/03/06 02:35:26;;;;;;;23.90;12.67;;;;;;;-4.09;75.27;95813.55;1742693;82;21015;-68
2022/03/06 02:37:54;;;;;;;23.60;11.67;;;;;;;-4.04;75.03;95808.17;1759012;81;21470;-68
2022/03/06 02:40:22;;;;;;;26.37;12.40;;;;;;;-4.06;74.88;95802.94;1742631;82;20959;-68
2022/03/06 02:42:51;;;;;;;21.97;11.47;;;;;;;-4.02;75.09;95809.98;1758988;81;21070;-68
2022/03/06 02:45:23;;;;;;;20.20;10.93;;;;;;;-4.00;74.46;95808.36;1753387;81;21492;-68
2022/03/06 02:47:52;;;;;;;22.33;11.67;;;;;;;-4.00;74.19;95812.23;1782076;80;21027;-68
2022/03/06 02:50:23;;;;;;;18.87;11.30;;;;;;;-4.12;74.16;95813.02;1769249;81;21008;-68
2022/03/06 02:52:53;;;;;;;17.60;10.67;;;;;;;-4.12;74.39;95813.43;1768448;81;21436;-68
2022/03/06 02:55:21;;;;;;;17.87;10.33;;;;;;;-4.17;73.96;95814.11;1768518;81;21063;-68
2022/03/06 02:57:48;;;;;;;24.17;13.47;;;;;;;-4.27;73.93;95818.41;1781658;80;21058;-68
2022/03/06 03:00:18;;;;;;;22.27;11.77;;;;;;;-4.24;74.47;95813.80;1769310;81;21042;-68
2022/03/06 03:02:46;;;;;;;19.83;11.00;;;;;;;-4.20;74.28;95810.13;1768494;81;21010;-68
2022/03/06 03:05:13;;;;;;;22.40;10.43;;;;;;;-4.20;74.14;95813.12;1768374;81;21014;-68
2022/03/06 03:07:43;;;;;;;21.67;11.40;;;;;;;-4.19;74.32;95812.28;1781821;80;21034;-68
2022/03/06 03:10:13;;;;;;;21.27;11.67;;;;;;;-4.15;74.20;95811.61;1769232;81;21083;-68
2022/03/06 03:12:41;;;;;;;18.90;10.53;;;;;;;-4.20;73.54;95806.67;1768430;81;21002;-68
2022/03/06 03:15:11;;;;;;;26.07;12.43;;;;;;;-4.22;73.75;95805.73;1781828;80;21046;-68
2022/03/06 03:17:38;;;;;;;25.37;11.77;;;;;;;-4.22;74.09;95807.89;1769245;81;21027;-68
2022/03/06 03:20:07;;;;;;;20.60;11.50;;;;;;;-4.18;74.02;95808.91;1768434;81;20979;-68
2022/03/06 03:22:34;;;;;;;19.10;10.43;;;;;;;-4.15;73.89;95805.17;1781855;80;21041;-68
2022/03/06 03:25:01;;;;;;;24.07;12.03;;;;;;;-4.19;73.74;95798.12;1769289;81;20999;-68
2022/03/06 03:27:28;;;;;;;22.47;11.70;;;;;;;-4.28;73.42;95802.88;1768340;81;21049;-68
2022/03/06 03:29:54;;;;;;;22.23;10.27;;;;;;;-4.27;73.74;95800.80;1768566;81;21497;-68
2022/03/06 03:32:21;;;;;;;23.07;11.40;;;;;;;-4.37;73.10;95809.83;1781776;80;21050;-68
2022/03/06 03:34:47;;;;;;;22.13;11.07;;;;;;;-4.48;73.15;95809.81;1769309;81;21492;-68
2022/03/06 03:37:14;;;;;;;20.63;10.63;;;;;;;-4.61;73.03;95805.42;1768440;81;21022;-68
2022/03/06 03:39:42;;;;;;;18.90;10.53;;;;;;;-4.70;73.23;95807.59;1781493;80;21767;-68
2022/03/06 03:42:08;;;;;;;20.07;11.10;;;;;;;-4.69;74.07;95805.48;1769351;81;21557;-68
2022/03/06 03:44:35;;;;;;;19.53;11.30;;;;;;;-4.63;74.13;95810.03;1762524;81;21102;-68
2022/03/06 03:47:02;;;;;;;21.43;11.03;;;;;;;-4.58;74.27;95813.27;1758924;81;21026;-68
2022/03/06 03:49:28;;;;;;;20.37;10.20;;;;;;;-4.51;74.17;95810.56;1742524;82;21012;-68
2022/03/06 03:51:55;;;;;;;22.30;10.63;;;;;;;-4.60;73.87;95815.31;1759117;81;21525;-68
2022/03/06 03:54:21;;;;;;;20.00;10.53;;;;;;;-4.62;74.04;95819.50;1742514;82;21007;-68
2022/03/06 03:56:48;;;;;;;20.83;10.97;;;;;;;-4.61;74.14;95817.01;1759034;81;21040;-68
2022/03/06 03:59:14;;;;;;;23.53;10.40;;;;;;;-4.59;73.90;95811.91;1742517;82;21011;-68
2022/03/06 04:01:41;;;;;;;21.03;10.80;;;;;;;-4.60;73.71;95811.45;1759084;81;21066;-68
2022/03/06 04:04:08;;;;;;;24.93;12.23;;;;;;;-4.61;73.69;95816.10;1742635;82;21039;-68
2022/03/06 04:06:34;;;;;;;31.00;14.23;;;;;;;-4.77;74.08;95813.70;1758939;81;21012;-68
2022/03/06 04:09:01;;;;;;;29.23;12.73;;;;;;;-4.81;74.41;95818.72;1742755;82;21029;-68
2022/03/06 04:11:27;;;;;;;22.93;11.47;;;;;;;-4.89;74.38;95817.52;1759006;81;21464;-68
2022/03/06 04:13:53;;;;;;;23.37;11.27;;;;;;;-4.86;74.53;95812.50;1742385;82;20995;-68
2022/03/06 04:16:20;;;;;;;23.60;12.93;;;;;;;-4.89;74.01;95816.61;1759199;81;21527;-68
2022/03/06 04:18:47;;;;;;;24.73;11.53;;;;;;;-4.96;74.25;95817.15;1742657;82;20976;-68
2022/03/06 04:21:13;;;;;;;27.20;11.07;;;;;;;-4.93;74.50;95813.03;1759027;81;21002;-68
2022/03/06 04:23:40;;;;;;;23.03;10.67;;;;;;;-4.89;74.20;95816.61;1742759;82;21007;-68
2022/03/06 04:26:06;;;;;;;20.53;10.03;;;;;;;-4.96;74.19;95814.58;1758988;81;21097;-68
2022/03/06 04:28:33;;;;;;;22.43;12.23;;;;;;;-5.17;73.72;95814.10;1742321;82;21509;-68
2022/03/06 04:30:59;;;;;;;26.17;11.77;;;;;;;-5.19;74.45;95817.42;1759021;81;21058;-68
2022/03/06 04:33:26;;;;;;;21.30;11.43;;;;;;;-5.18;74.56;95812.36;1742719;82;21031;-68
2022/03/06 04:35:53;;;;;;;20.33;10.73;;;;;;;-5.16;74.92;95818.45;1758997;81;21487;-68
2022/03/06 04:38:19;;;;;;;20.10;10.53;;;;;;;-5.18;74.43;95814.93;1742617;82;21482;-68
2022/03/06 04:40:47;;;;;;;21.23;11.03;;;;;;;-5.15;74.80;95815.06;1759083;81;21088;-68
2022/03/06 04:43:14;;;;;;;22.10;10.37;;;;;;;-5.13;74.36;95813.44;1742088;82;21046;-68
2022/03/06 04:45:40;;;;;;;21.10;9.63;;;;;;;-5.16;74.14;95815.01;1756588;80;21074;-68
2022/03/06 04:48:07;;;;;;;21.30;10.30;;;;;;;-5.20;74.66;95811.81;1779943;80;21037;-68
2022/03/06 04:50:34;;;;;;;20.53;10.57;;;;;;;-5.21;74.67;95819.94;1776123;81;21048;-68
2022/03/06 04:53:00;;;;;;;17.43;9.77;;;;;;;-5.23;74.26;95823.72;1776286;81;21069;-68
2022/03/06 04:55:27;;;;;;;18.10;9.20;;;;;;;-5.21;74.61;95830.23;1776361;81;21025;-68
2022/03/06 04:57:53;;;;;;;20.50;10.00;;;;;;;-5.17;74.38;95828.66;1776291;81;20978;-68
2022/03/06 05:00:20;;;;;;;22.70;11.97;;;;;;;-5.26;74.31;95828.73;1776526;81;21519;-68
2022/03/06 05:02:46;;;;;;;21.47;11.63;;;;;;;-5.31;74.47;95840.50;1792603;80;21014;-68
2022/03/06 05:05:13;;;;;;;37.20;18.07;;;;;;;-5.44;74.29;95832.64;1779990;81;21457;-68
2022/03/06 05:07:39;;;;;;;21.20;11.03;;;;;;;-5.61;74.66;95833.95;1776369;81;21017;-68
2022/03/06 05:10:11;;;;;;;19.37;10.43;;;;;;;-5.53;75.40;95837.34;1792099;80;21489;-68
2022/03/06 05:12:40;;;;;;;25.83;12.30;;;;;;;-5.40;75.43;95833.64;1779486;80;21066;-68
2022/03/06 05:15:09;;;;;;;23.90;11.87;;;;;;;-5.30;75.38;95833.25;1776347;81;21033;-68
2022/03/06 05:17:35;;;;;;;24.77;11.90;;;;;;;-5.18;75.02;95829.48;1776388;81;21313;-68
2022/03/06 05:20:04;;;;;;;17.53;10.33;;;;;;;-5.21;74.45;95839.23;1792856;80;21011;-68
2022/03/06 05:22:31;;;;;;;18.23;10.47;;;;;;;-5.17;74.41;95838.95;1780156;80;20952;-68
2022/03/06 05:25:02;;;;;;;21.53;10.13;;;;;;;-5.17;74.46;95846.26;1776319;81;21530;-68
2022/03/06 05:27:26;;;;;;;19.53;10.03;;;;;;;-5.19;74.17;95843.14;1775172;81;21013;-68
2022/03/06 05:29:53;;;;;;;19.67;10.20;;;;;;;-5.11;74.44;95841.82;1776417;81;21006;-68
2022/03/06 05:32:20;;;;;;;17.27;10.57;;;;;;;-5.03;74.45;95840.05;1776384;81;21025;-68
2022/03/06 05:34:46;;;;;;;22.73;10.37;;;;;;;-4.97;74.38;95838.56;1792791;80;21002;-67
2022/03/06 05:37:13;;;;;;;33.17;16.47;;;;;;;-4.93;74.37;95848.19;1780337;81;21030;-68
2022/03/06 05:39:40;;;;;;;35.13;16.93;;;;;;;-4.90;74.30;95853.47;1776204;81;21085;-67
2022/03/06 05:42:07;;;;;;;33.80;17.30;;;;;;;-4.89;74.05;95847.11;1792933;80;20994;-67
2022/03/06 05:44:34;;;;;;;41.07;17.67;;;;;;;-4.86;74.03;95848.94;1776846;81;21127;-68
2022/03/06 05:47:01;;;;;;;41.67;19.23;;;;;;;-4.86;74.21;95848.53;1769005;81;21534;-68
2022/03/06 05:49:27;;;;;;;43.67;19.20;;;;;;;-4.71;74.35;95851.28;1781651;80;21062;-68
2022/03/06 05:51:54;;;;;;;31.93;15.50;;;;;;;-4.64;74.26;95851.61;1769342;81;21008;-68
2022/03/06 05:54:20;;;;;;;38.30;16.73;;;;;;;-4.74;74.50;95859.75;1768599;81;21535;-68
2022/03/06 05:56:47;;;;;;;37.33;16.43;;;;;;;-4.71;74.58;95854.77;1768292;81;21105;-68
2022/03/06 05:59:14;;;;;;;58.50;24.00;;;;;;;-4.77;74.36;95850.61;1781837;80;21469;-68
2022/03/06 06:01:40;;;;;;;40.53;19.43;;;;;;;-4.82;74.46;95853.39;1769447;81;21047;-68
2022/03/06 06:04:07;;;;;;;48.13;20.33;;;;;;;-4.85;75.08;95850.27;1768482;81;21572;-68
2022/03/06 06:06:34;;;;;;;49.60;22.67;;;;;;;-4.82;75.82;95856.84;1781846;80;21010;-68
2022/03/06 06:09:00;;;;;;;67.50;29.27;;;;;;;-4.73;75.36;95858.08;1769456;81;21011;-68
2022/03/06 06:11:27;;;;;;;48.53;23.30;;;;;;;-4.68;76.21;95856.17;1768579;81;21498;-68
2022/03/06 06:13:53;;;;;;;43.97;20.57;;;;;;;-4.46;76.10;95850.27;1768270;81;21006;-68
2022/03/06 06:16:20;;;;;;;42.37;19.23;;;;;;;-4.22;75.76;95858.12;1768513;81;21010;-68
2022/03/06 06:18:47;;;;;;;41.33;20.97;;;;;;;-4.00;75.06;95856.05;1768539;81;21017;-68
2022/03/06 06:21:16;;;;;;;28.97;16.00;;;;;;;-3.84;74.19;95856.66;1768532;81;21018;-68
2022/03/06 06:23:42;;;;;;;25.90;14.13;;;;;;;-3.65;74.41;95854.40;1781923;80;21034;-68
2022/03/06 06:26:09;;;;;;;26.40;14.30;;;;;;;-3.44;74.30;95852.67;1769069;81;21036;-68
2022/03/06 06:28:35;;;;;;;31.90;16.90;;;;;;;-3.32;72.81;95854.86;1768452;81;21018;-68
2022/03/06 06:31:02;;;;;;;36.17;19.50;;;;;;;-3.22;71.93;95850.94;1781988;80;21007;-68
2022/03/06 06:33:29;;;;;;;50.30;26.53;;;;;;;-3.14;71.68;95853.39;1769342;81;21003;-76
2022/03/06 06:35:55;;;;;;;53.80;26.20;;;;;;;-3.06;71.13;95855.42;1768563;81;21452;-68
2022/03/06 06:38:23;;;;;;;35.00;17.87;;;;;;;-2.99;71.06;95852.67;1768618;81;21478;-68
2022/03/06 06:40:52;;;;;;;29.03;17.00;;;;;;;-2.91;70.23;95856.83;1768545;81;21558;-68
2022/03/06 06:43:20;;;;;;;31.40;16.50;;;;;;;-2.85;69.98;95854.45;1768440;81;21037;-68
2022/03/06 06:45:49;;;;;;;30.53;15.90;;;;;;;-2.78;69.65;95851.70;1760528;81;21030;-68
2022/03/06 06:48:15;;;;;;;28.10;15.70;;;;;;;-2.71;69.18;95847.23;1758794;82;21089;-68
2022/03/06 06:50:42;;;;;;;30.90;14.87;;;;;;;-2.64;68.71;95847.50;1742770;82;21044;-68
2022/03/06 06:53:09;;;;;;;32.53;16.03;;;;;;;-2.54;68.18;95839.67;1759124;81;20997;-69
2022/03/06 06:55:36;;;;;;;32.67;18.30;;;;;;;-2.41;68.99;95846.15;1742555;82;21016;-68
2022/03/06 06:58:05;;;;;;;31.77;17.37;;;;;;;-2.29;69.06;95842.70;1759045;81;21505;-69
2022/03/06 07:00:31;;;;;;;32.57;17.93;;;;;;;-2.16;68.85;95843.12;1743100;82;21002;-68
2022/03/06 07:02:58;;;;;;;27.60;16.57;;;;;;;-2.08;68.37;95839.95;1759082;81;21013;-66
2022/03/06 07:05:25;;;;;;;34.43;18.50;;;;;;;-1.98;68.64;95842.02;1715782;82;20987;-65
2022/03/06 07:07:53;;;;;;;31.00;16.97;;;;;;;-1.88;68.83;95840.63;1759133;81;21519;-65
2022/03/06 07:10:21;;;;;;;25.87;14.93;;;;;;;-1.80;68.63;95848.21;1742624;82;20975;-66
2022/03/06 07:12:53;;;;;;;28.00;15.07;;;;;;;-1.66;69.45;95847.77;1758756;81;20986;-65
2022/03/06 07:15:19;;;;;;;30.77;14.77;;;;;;;-1.52;69.44;95847.80;1742418;82;21466;-65
2022/03/06 07:17:45;;;;;;;26.10;14.37;;;;;;;-1.40;69.40;95845.61;1758973;81;20962;-65
2022/03/06 07:20:12;;;;;;;27.53;14.43;;;;;;;-1.27;69.59;95833.92;1715614;82;20999;-65
2022/03/06 07:22:39;;;;;;;23.73;11.97;;;;;;;-1.11;69.65;95838.75;1758661;82;21070;-66
2022/03/06 07:25:07;;;;;;;21.57;13.53;;;;;;;-0.94;69.18;95837.06;1742287;82;21561;-66
2022/03/06 07:27:34;;;;;;;27.40;13.70;;;;;;;-0.82;68.45;95840.44;1759114;81;21081;-66
2022/03/06 07:30:01;;;;;;;24.33;13.33;;;;;;;-0.75;68.27;95836.77;1742651;82;21020;-66
2022/03/06 07:32:28;;;;;;;23.60;13.03;;;;;;;-0.64;67.94;95837.06;1758865;82;21014;-66
2022/03/06 07:34:54;;;;;;;23.10;13.63;;;;;;;-0.55;66.81;95835.16;1742765;82;21012;-66
2022/03/06 07:37:21;;;;;;;27.93;15.40;;;;;;;-0.47;66.56;95827.17;1758928;81;21510;-66
2022/03/06 07:39:48;;;;;;;22.17;11.73;;;;;;;-0.37;66.35;95824.42;1742513;82;21016;-66
2022/03/06 07:42:15;;;;;;;20.03;11.43;;;;;;;-0.34;64.42;95824.06;1758812;81;21014;-66
2022/03/06 07:44:42;;;;;;;20.50;11.27;;;;;;;-0.27;65.35;95814.33;1743346;82;21012;-66
2022/03/06 07:47:09;;;;;;;20.20;12.13;;;;;;;-0.22;64.85;95819.64;1781539;80;21523;-66
2022/03/06 07:49:35;;;;;;;20.97;11.43;;;;;;;-0.19;64.32;95822.73;1769275;81;21042;-66
2022/03/06 07:52:03;;;;;;;21.77;12.43;;;;;;;-0.09;64.04;95818.23;1768097;81;21025;-66
2022/03/06 07:54:30;;;;;;;19.83;11.73;;;;;;;0.03;64.58;95816.39;1768506;81;21499;-66
2022/03/06 07:56:56;;;;;;;18.80;12.13;;;;;;;0.17;64.38;95813.27;1782070;80;21308;-66
2022/03/06 07:59:25;;;;;;;20.63;11.77;;;;;;;0.25;62.93;95813.45;1769015;81;21469;-66
2022/03/06 08:01:53;;;;;;;18.93;10.70;;;;;;;0.22;61.51;95806.91;1768493;81;21030;-66
2022/03/06 08:04:20;;;;;;;22.10;12.03;;;;;;;0.26;61.54;95806.58;1768516;81;21460;-66
2022/03/06 08:06:47;;;;;;;22.00;13.23;;;;;;;0.38;62.69;95802.55;1768365;81;21468;-66
2022/03/06 08:09:15;;;;;;;21.47;13.50;;;;;;;0.52;62.87;95804.59;1781927;80;21014;-66
2022/03/06 08:11:43;;;;;;;22.17;13.57;;;;;;;0.57;62.82;95799.95;1775156;81;20991;-68
2022/03/06 08:14:09;;;;;;;25.67;14.83;;;;;;;0.70;63.90;95792.02;1768391;81;21033;-66
2022/03/06 08:16:37;;;;;;;26.17;15.70;;;;;;;0.83;63.14;95790.17;1768274;81;21409;-66
2022/03/06 08:19:05;;;;;;;31.50;19.97;;;;;;;0.96;63.88;95793.00;1768249;81;21045;-66
2022/03/06 08:21:32;;;;;;;28.57;16.07;;;;;;;1.01;63.71;95793.59;1768562;81;20998;-66
2022/03/06 08:23:59;;;;;;;26.50;15.47;;;;;;;1.15;64.19;95779.99;1781892;80;20975;-66
2022/03/06 08:26:25;;;;;;;25.87;15.90;;;;;;;1.29;63.82;95780.73;1769123;81;21011;-66
2022/03/06 08:28:52;;;;;;;24.73;13.27;;;;;;;1.38;63.72;95780.02;1768334;81;21623;-66
2022/03/06 08:31:20;;;;;;;35.63;18.17;;;;;;;1.49;63.75;95775.92;1768270;81;21046;-66
2022/03/06 08:33:47;;;;;;;36.93;18.83;;;;;;;1.60;63.34;95772.65;1768335;81;21061;-66
2022/03/06 08:36:14;;;;;;;27.70;14.97;;;;;;;1.67;62.64;95776.69;1768421;81;21029;-66
2022/03/06 08:38:41;;;;;;;25.90;14.90;;;;;;;1.78;63.12;95774.70;1782004;80;20991;-66
2022/03/06 08:41:07;;;;;;;30.23;18.23;;;;;;;1.76;62.33;95783.77;1769142;81;21581;-66
2022/03/06 08:43:34;;;;;;;20.80;12.27;;;;;;;1.84;62.67;95780.00;1768419;81;20998;-66
2022/03/06 08:46:03;;;;;;;34.30;17.47;;;;;;;1.89;62.00;95778.36;1762020;81;21007;-66
2022/03/06 08:48:31;;;;;;;26.20;14.73;;;;;;;2.01;62.94;95773.38;1755885;82;21525;-66
2022/03/06 08:50:59;;;;;;;29.10;17.43;;;;;;;2.19;61.88;95773.23;1756373;82;20994;-66
2022/03/06 08:53:25;;;;;;;27.17;16.57;;;;;;;2.30;62.26;95779.08;1756381;82;21441;-66
2022/03/06 08:55:52;;;;;;;35.77;20.47;;;;;;;2.43;61.94;95768.86;1756223;82;21030;-66
2022/03/06 08:58:18;;;;;;;24.93;14.53;;;;;;;2.58;61.95;95766.49;1756421;82;21472;-66
2022/03/06 09:00:46;;;;;;;28.07;16.17;;;;;;;2.69;60.99;95765.34;1756188;82;20979;-66
2022/03/06 09:03:13;;;;;;;28.13;16.83;;;;;;;2.70;59.81;95769.28;1728482;82;21094;-67
2022/03/06 09:05:40;;;;;;;30.03;17.60;;;;;;;2.67;60.69;95764.43;1759030;81;21479;-66
2022/03/06 09:08:11;;;;;;;28.10;14.73;;;;;;;2.76;59.78;95759.36;1742343;82;21046;-67
2022/03/06 09:10:40;;;;;;;23.47;14.70;;;;;;;2.91;61.38;95754.80;1759001;81;21049;-67
2022/03/06 09:13:08;;;;;;;33.27;17.77;;;;;;;3.10;59.69;95747.67;1742698;82;21043;-66
2022/03/06 09:15:37;;;;;;;33.63;19.37;;;;;;;3.16;58.39;95742.95;1758972;81;21495;-66
2022/03/06 09:18:05;;;;;;;22.43;13.07;;;;;;;3.32;59.58;95740.96;1742631;82;21500;-66
2022/03/06 09:20:32;;;;;;;24.73;15.10;;;;;;;3.38;57.97;95737.14;1758924;81;20979;-66
2022/03/06 09:22:59;;;;;;;18.77;11.97;;;;;;;3.54;57.77;95733.39;1742318;82;21007;-66
2022/03/06 09:25:28;;;;;;;20.87;12.57;;;;;;;3.55;56.41;95728.17;1758928;81;21073;-66
2022/03/06 09:27:54;;;;;;;23.87;13.10;;;;;;;3.66;56.92;95727.00;1742386;82;21038;-66
2022/03/06 09:30:21;;;;;;;20.67;12.60;;;;;;;3.80;57.35;95716.25;1758816;82;21049;-66
2022/03/06 09:32:47;;;;;;;21.37;11.97;;;;;;;4.04;57.64;95717.34;1742281;82;21142;-66
2022/03/06 09:35:16;;;;;;;18.17;11.17;;;;;;;4.18;56.51;95713.09;1758915;81;21061;-66
2022/03/06 09:37:43;;;;;;;18.17;11.33;;;;;;;4.28;55.66;95709.72;1742554;82;21097;-66
2022/03/06 09:40:11;;;;;;;17.33;11.37;;;;;;;4.34;55.06;95707.58;1758680;81;21010;-66
2022/03/06 09:42:39;;;;;;;17.53;11.57;;;;;;;4.52;55.60;95702.91;1742436;82;21023;-66
2022/03/06 09:45:09;;;;;;;14.77;9.10;;;;;;;4.56;52.10;95699.43;1758892;80;21053;-67
2022/03/06 09:47:39;;;;;;;16.30;11.17;;;;;;;4.46;51.51;95706.36;1766208;81;21062;-66
2022/03/06 09:50:08;;;;;;;15.13;9.67;;;;;;;4.39;50.74;95702.39;1790552;80;20983;-67
2022/03/06 09:52:35;;;;;;;14.90;9.93;;;;;;;4.54;53.52;95692.04;1766333;81;21042;-67
2022/03/06 09:55:03;;;;;;;16.73;10.27;;;;;;;4.72;53.20;95689.52;1766162;81;21026;-67
2022/03/06 09:57:30;;;;;;;15.07;10.17;;;;;;;4.95;52.21;95684.84;1765901;81;21062;-67
2022/03/06 09:59:57;;;;;;;17.47;10.40;;;;;;;5.11;51.76;95686.64;1766301;81;20962;-66
2022/03/06 10:02:23;;;;;;;13.97;9.40;;;;;;;5.15;50.73;95676.64;1766035;81;21029;-67
2022/03/06 10:04:52;;;;;;;14.43;9.43;;;;;;;5.18;50.83;95684.50;1766365;81;21463;-66
2022/03/06 10:07:19;;;;;;;15.40;10.53;;;;;;;5.18;49.98;95682.32;1829394;78;21076;-66
2022/03/06 10:09:51;;;;;;;15.03;9.20;;;;;;;5.17;49.42;95681.45;1829694;78;21033;-66
2022/03/06 10:12:28;;;;;;;15.67;10.07;;;;;;;5.18;49.83;95680.57;1829509;78;21018;-66
2022/03/06 10:14:59;;;;;;;14.77;9.87;;;;;;;5.33;50.14;95673.66;1829619;78;20950;-66
2022/03/06 10:17:31;;;;;;;15.50;9.73;;;;;;;5.41;50.04;95676.72;1829792;78;21568;-66
2022/03/06 10:20:09;;;;;;;15.17;9.83;;;;;;;5.53;49.71;95667.16;1829602;78;20998;-66
2022/03/06 10:22:39;;;;;;;16.23;10.47;;;;;;;5.62;48.70;95671.12;1829682;78;21007;-66
2022/03/06 10:25:20;;;;;;;15.33;10.73;;;;;;;5.68;48.79;95667.19;1829530;78;21045;-68
2022/03/06 10:27:54;;;;;;;15.17;9.17;;;;;;;5.64;47.38;95661.50;1829692;78;21017;-66
2022/03/06 10:30:37;;;;;;;16.07;10.07;;;;;;;5.61;47.92;95661.50;1829586;78;20981;-67
2022/03/06 10:33:12;;;;;;;13.80;8.85;;;;;;;5.70;48.35;95655.42;1829812;78;20994;-67
2022/03/06 10:35:43;;;;;;;15.47;9.50;;;;;;;5.84;48.59;95654.53;1829689;78;20989;-67
2022/03/06 10:38:29;;;;;;;16.53;10.10;;;;;;;5.90;46.37;95647.14;1829679;78;21062;-67
2022/03/06 10:40:58;;;;;;;14.77;9.20;;;;;;;5.98;47.33;95648.48;1829667;78;20950;-67
2022/03/06 10:43:32;;;;;;;12.93;9.27;;;;;;;6.09;48.53;95647.16;1829662;78;21029;-67
2022/03/06 10:46:13;;;;;;;;;;;;;;;6.17;45.38;95641.48;1830353;78;21022;-67
2022/03/06 10:48:44;;;;;;;12.50;9.10;;;;;;;6.28;46.15;95641.91;1826204;78;20090;-66
2022/03/06 10:51:14;;;;;;;13.53;9.47;;;;;;;6.39;44.69;95639.27;1826287;78;21536;-66
2022/03/06 10:53:41;;;;;;;12.50;8.27;;;;;;;6.62;46.89;95630.04;1826098;78;20982;-66
2022/03/06 10:56:12;;;;;;;14.23;10.13;;;;;;;6.87;44.43;95630.83;1825885;78;21065;-66
2022/03/06 10:58:42;;;;;;;15.27;9.80;;;;;;;7.28;43.11;95624.97;1826185;78;21492;-66
2022/03/06 11:01:10;;;;;;;14.10;9.90;;;;;;;7.67;45.04;95614.67;1825204;78;21057;-66
2022/03/06 11:03:38;;;;;;;13.13;9.63;;;;;;;8.18;44.27;95608.56;1826261;78;21073;-66
2022/03/06 11:06:07;;;;;;;12.67;9.20;;;;;;;8.73;43.95;95597.09;1826115;78;21081;-66
2022/03/06 11:08:35;;;;;;;11.50;8.67;;;;;;;8.87;39.78;95597.81;1826120;78;21006;-67
2022/03/06 11:11:07;;;;;;;11.88;8.58;;;;;;;9.06;39.87;95595.36;1825880;78;20986;-66
2022/03/06 11:13:35;;;;;;;11.40;8.68;;;;;;;9.40;37.92;95590.09;1826324;78;21437;-66
2022/03/06 11:16:03;;;;;;;12.15;9.35;;;;;;;9.87;39.75;95581.47;1825409;78;21010;-67
2022/03/06 11:18:32;;;;;;;11.03;8.68;;;;;;;10.20;37.27;95580.48;1825859;78;21623;-67
2022/03/06 11:21:02;;;;;;;11.03;8.80;;;;;;;10.31;37.08;95581.67;1826201;78;20982;-67
2022/03/06 11:23:47;;;;;;;12.03;9.18;;;;;;;10.85;38.18;95581.97;1826309;78;21495;-67